Pagrindinis puslapis
METAR-TAF:

METAR-TAF

Oro uostai :

Kosraė, Mikronezija

platuma: 05-21N, ilguma: 162-57E, Aukštis: 3 m

Dabartinis oras

Ataskaita buvo paskelbta 10 valandos ir 57 minutes, ne 01:50 UTC
Vėjas 15 kt iš Rytų/Šiaurės Rytų
Temperatūra 29°C
Drėgmė 74%
Slėgis 1006 hPa
Matomumas: 16.1 km
Išsisklaidę debesys ne aukštis 1800 ft
Su prošvaistėmis ne aukštis 13000 ft
Apsiniaukę ne aukštis 30000 ft

METAR: PTSA 250150Z 06015KT 10SM SCT018 BKN130 OVC300 29/24 A2972 RMK LAST

Laikas: 23:47 (12:47 UTC)

Prognozė

Ataskaita buvo paskelbta 13 valandos ir 5 minutes, ne 23:42 UTC
Prognozė galioja nuo 25 metu 00 UTC su 25 metu 24 UTC
Vėjas 13 kt iš Rytų
Matomumas: 10 km
Išsisklaidę debesys ne aukštis 1600 ft
Išsisklaidę debesys ne aukštis 4000 ft
Su prošvaistėmis ne aukštis 12000 ft
Liūtis kaimynystėje
Laikinai
nuo 25 metu 00 UTC su 25 metu 04 UTC
Matomumas: 6.4 km
Išsisklaidę debesys ne aukštis 1400 ft
Su prošvaistėmis ne aukštis 2500 ft
lietus

TAF: PTSA 242342Z 2500/2524 09013KT P6SM VCSH SCT016 SCT040 BKN120 TEMPO 2500/2504 4SM SHRA SCT014 BKN025

Orai ataskaitas ir orų prognozės (METAR, TAF).

turimą stotys yra geltonos ir raudonos taškus žemėlapyje.

Perkelti pele per norėdami pamatyti stoties vardą.

Tada spustelėkite, norėdami matyti oro stebėjimo ir prognozės.

Norėdami pakeisti žemėlapį: spustelėkite ant žalios mygtukų su juodo kryžiaus žemyn,; žalią mygtuką su brūkšneliu, jei norite nutolinti; arba žalių rodyklių gretimoms žemėlapius.


METAR-TAF: